Alexandria, LA

11:16 PM CST on November 23, 2014 (GMT -0600)
Alexandria Esler Regional | Change Station
CLOSE
Current Station
Airport
Location: Alexandria Esle,
Elevation: 112 ft
Nearby Weather Stations

Elev 112 ft 31.39 °N, 92.30 °W | Updated 23 minutes ago

Clear
Clear
63 °F
Feels Like 63 °F
N
6
Wind Variable Wind from SW

Today
High -- | Low -- °F
--% Chance of Precip.
Yesterday
High -- | Low -- °F
Precip. -- in
6:44 AM 5:08 PM
Waxing Crescent, 4% visible
Pressure 29.66 in
Visibility 10.0 miles
Clouds Clear
Dew Point 58 °F
Humidity 84%
Rainfall 0.64 in
Snow Depth Not available.
UV 0 out of 12
Pollen .30 out of 12
Air Quality Not available.
Flu Activity Not available.
METAR KESF 240453Z AUTO 22005KT 10SM CLR 17/14 A2966 RMK AO2 SLP042 T01720144

More Conditions Fewer Conditions

Pressure 29.66 in
Visibility 10.0 miles
Clouds Clear
Dew Point 58 °F
Humidity 84%
Rainfall 0.64 in
Snow Depth Not available.
UV 0 out of 12
Pollen .30 out of 12
Air Quality Not available.
Flu Activity Not available.
METAR KESF 240453Z AUTO 22005KT 10SM CLR 17/14 A2966 RMK AO2 SLP042 T01720144

More Conditions Fewer Conditions

10-Day Weather Forecast

Almanac

Astronomy

Nov. 23, 2014 Rise Set
Actual Time
Civil Twilight
Nautical Twilight
Astronomical Twilight
Moon
Length of Visible Light
Length of Day
Tomorrow will be .
, % of the Moon is Illuminated

Today's Extremes

State Highs State Lows

Community

WunderPhotos

Upload Photos

1,773,269 photos uploaded!

WunderBlogs® & News

Nearby

Air Quality

  Air Quality AQ Index Pollutant
Not available.

Snow Depth

Station Depth Elevation

Earthquake Activity

City Distance Mag. Time & Date
Minimum magnitude displayed is 2.5.

Coastal Water Temperatures

Place Temperature

Nearby Weather Stations